createdAt,value
2022-11-17T00:00:41.947Z,9.60
2022-11-17T00:03:14.893Z,9.10
2022-11-17T00:05:42.332Z,7.40
2022-11-17T00:08:09.274Z,9.87
2022-11-17T00:10:36.344Z,8.80
2022-11-17T00:13:21.492Z,9.93
2022-11-17T00:15:48.379Z,7.90
2022-11-17T00:18:33.703Z,9.40
2022-11-17T00:21:19.889Z,11.27
2022-11-17T00:23:48.138Z,9.37
2022-11-17T00:26:27.517Z,10.27
2022-11-17T00:28:58.796Z,11.27
2022-11-17T00:31:46.399Z,7.47
2022-11-17T00:34:19.953Z,9.03
2022-11-17T00:36:52.008Z,10.40
2022-11-17T00:39:21.590Z,10.47
2022-11-17T00:41:48.460Z,11.90
2022-11-17T00:44:16.377Z,10.13
2022-11-17T00:46:43.758Z,8.43
2022-11-17T00:49:12.000Z,9.10
2022-11-17T00:51:39.111Z,9.13
2022-11-17T00:54:08.036Z,9.30
2022-11-17T00:56:34.961Z,8.47
2022-11-17T00:59:02.181Z,9.77
2022-11-17T01:01:30.157Z,17.03
2022-11-17T01:04:03.509Z,8.90
2022-11-17T01:06:43.448Z,9.50
2022-11-17T01:09:21.987Z,7.40
2022-11-17T01:11:51.958Z,8.23
2022-11-17T01:14:26.625Z,8.20
2022-11-17T01:16:54.492Z,11.50
2022-11-17T01:19:22.453Z,10.40
2022-11-17T01:21:49.399Z,8.63
2022-11-17T01:24:17.348Z,9.10
2022-11-17T01:26:45.769Z,7.37
2022-11-17T01:29:17.046Z,8.70
2022-11-17T01:31:44.956Z,9.50
2022-11-17T01:34:12.735Z,9.70
2022-11-17T01:37:02.196Z,8.53
2022-11-17T01:39:30.756Z,8.93
2022-11-17T01:41:58.591Z,9.57
2022-11-17T01:44:59.952Z,8.80
2022-11-17T01:47:37.658Z,9.70
2022-11-17T01:50:21.877Z,7.90
2022-11-17T01:52:52.528Z,8.33
2022-11-17T01:55:21.646Z,8.27
2022-11-17T01:57:56.834Z,9.30
2022-11-17T02:00:24.031Z,8.87
2022-11-17T02:02:52.071Z,7.60
2022-11-17T02:05:44.277Z,7.53
2022-11-17T02:08:12.362Z,12.43
2022-11-17T02:10:40.157Z,8.07
2022-11-17T02:13:08.448Z,8.87
2022-11-17T02:15:35.280Z,9.80
2022-11-17T02:18:03.119Z,10.57
2022-11-17T02:20:54.970Z,7.97
2022-11-17T02:23:42.192Z,7.50
2022-11-17T02:26:34.455Z,9.20
2022-11-17T02:29:25.884Z,8.07
2022-11-17T02:32:09.761Z,8.20
2022-11-17T02:35:03.203Z,8.67
2022-11-17T02:37:34.468Z,8.23
2022-11-17T02:40:14.778Z,7.33
2022-11-17T02:43:20.420Z,9.50
2022-11-17T02:45:56.566Z,9.20
2022-11-17T02:48:32.638Z,6.93
2022-11-17T02:51:00.466Z,7.03
2022-11-17T02:53:28.932Z,9.20
2022-11-17T02:56:00.195Z,8.73
2022-11-17T02:58:27.020Z,8.40
2022-11-17T03:01:19.465Z,8.20
2022-11-17T03:04:30.482Z,6.10
2022-11-17T03:07:24.877Z,7.63
2022-11-17T03:10:46.188Z,8.20
2022-11-17T03:13:56.969Z,7.83
2022-11-17T03:16:42.934Z,8.00
2022-11-17T03:19:30.473Z,8.97
2022-11-17T03:22:13.100Z,11.40
2022-11-17T03:24:58.209Z,9.97
2022-11-17T03:27:30.947Z,8.00
2022-11-17T03:30:03.427Z,8.27
2022-11-17T03:32:36.907Z,13.97
2022-11-17T03:35:11.406Z,8.27
2022-11-17T03:38:04.226Z,8.20
2022-11-17T03:40:34.110Z,8.03
2022-11-17T03:43:05.995Z,8.77
2022-11-17T03:45:38.642Z,8.87
2022-11-17T03:48:39.180Z,8.03
2022-11-17T03:51:24.320Z,27.13
2022-11-17T03:53:52.642Z,11.50
2022-11-17T03:56:39.952Z,8.10
2022-11-17T03:59:32.538Z,8.77
2022-11-17T04:01:59.799Z,10.53
2022-11-17T04:04:47.930Z,8.33
2022-11-17T04:07:14.949Z,7.63
2022-11-17T04:09:41.816Z,8.97
2022-11-17T04:12:27.196Z,7.33
2022-11-17T04:15:12.945Z,8.07
2022-11-17T04:17:40.095Z,9.03
2022-11-17T04:20:08.096Z,9.13
2022-11-17T04:22:34.992Z,9.37
2022-11-17T04:25:02.186Z,7.43
2022-11-17T04:27:47.437Z,9.03
2022-11-17T04:30:14.622Z,9.50
2022-11-17T04:32:41.494Z,7.80
2022-11-17T04:35:08.917Z,8.67
2022-11-17T04:37:35.770Z,8.83
2022-11-17T04:40:02.800Z,8.37
2022-11-17T04:42:29.658Z,8.77
2022-11-17T04:44:56.522Z,7.83
2022-11-17T04:47:23.381Z,9.17
2022-11-17T04:49:50.267Z,11.53
2022-11-17T04:52:17.196Z,9.90
2022-11-17T04:54:44.207Z,9.40
2022-11-17T04:57:11.119Z,8.40
2022-11-17T04:59:38.020Z,9.80
2022-11-17T05:02:06.279Z,10.10
2022-11-17T05:04:52.003Z,8.10
2022-11-17T05:07:18.982Z,9.27
2022-11-17T05:09:45.884Z,10.37
2022-11-17T05:12:31.367Z,8.37
2022-11-17T05:14:58.281Z,10.07
2022-11-17T05:17:25.142Z,10.47
2022-11-17T05:19:51.971Z,10.23
2022-11-17T05:22:41.305Z,9.93
2022-11-17T05:25:09.227Z,10.87
2022-11-17T05:27:36.312Z,7.80
2022-11-17T05:30:07.028Z,10.30
2022-11-17T05:32:34.005Z,9.50
2022-11-17T05:35:00.963Z,7.73
2022-11-17T05:37:27.973Z,10.10
2022-11-17T05:39:55.007Z,10.13
2022-11-17T05:42:22.031Z,9.13
2022-11-17T05:44:49.031Z,11.87
2022-11-17T05:47:16.114Z,9.40
2022-11-17T05:49:43.071Z,10.53
2022-11-17T05:52:10.215Z,10.33
2022-11-17T05:54:37.319Z,10.77
2022-11-17T05:57:11.000Z,10.77
2022-11-17T05:59:44.538Z,10.90
2022-11-17T06:02:29.220Z,11.90
2022-11-17T06:04:56.115Z,11.10
2022-11-17T06:07:23.948Z,6.13
2022-11-17T06:09:52.057Z,9.37
2022-11-17T06:12:18.989Z,9.83
2022-11-17T06:14:45.903Z,10.80
2022-11-17T06:17:31.123Z,11.73
2022-11-17T06:20:12.366Z,12.70
2022-11-17T06:22:41.845Z,9.90
2022-11-17T06:25:12.550Z,10.00
2022-11-17T06:27:41.105Z,9.67
2022-11-17T06:30:08.404Z,10.43
2022-11-17T06:32:43.210Z,10.10
2022-11-17T06:35:12.983Z,8.90
2022-11-17T06:37:40.169Z,11.23
2022-11-17T06:40:08.051Z,9.90
2022-11-17T06:42:53.842Z,10.60
2022-11-17T06:45:20.721Z,11.53
2022-11-17T06:47:47.649Z,9.90
2022-11-17T06:50:14.908Z,8.70
2022-11-17T06:52:41.939Z,9.97
2022-11-17T06:55:09.411Z,9.53
2022-11-17T06:57:36.596Z,10.50
2022-11-17T07:00:06.358Z,9.60
2022-11-17T07:02:33.705Z,10.50
2022-11-17T07:05:00.647Z,11.00
2022-11-17T07:07:27.703Z,10.57
2022-11-17T07:09:54.808Z,10.33
2022-11-17T07:12:21.835Z,9.10
2022-11-17T07:14:48.801Z,8.60
2022-11-17T07:17:15.797Z,9.80
2022-11-17T07:19:42.886Z,10.03
2022-11-17T07:22:09.813Z,8.73
2022-11-17T07:24:36.772Z,9.83
2022-11-17T07:27:04.879Z,8.97
2022-11-17T07:29:31.887Z,9.80
2022-11-17T07:31:58.885Z,10.27
2022-11-17T07:34:25.851Z,8.90
2022-11-17T07:36:52.872Z,8.10
2022-11-17T07:39:21.687Z,8.40
2022-11-17T07:41:48.832Z,15.23
2022-11-17T07:44:15.765Z,9.37
2022-11-17T07:46:42.740Z,9.67
2022-11-17T07:49:09.687Z,8.77
2022-11-17T07:51:36.702Z,8.53
2022-11-17T07:54:03.908Z,6.23
2022-11-17T07:56:31.018Z,8.70
2022-11-17T07:58:57.972Z,6.93
2022-11-17T08:01:27.618Z,8.67
2022-11-17T08:03:54.915Z,8.40
2022-11-17T08:06:23.957Z,8.20
2022-11-17T08:08:51.798Z,6.80
2022-11-17T08:11:19.414Z,9.10
2022-11-17T08:13:47.052Z,20.50
2022-11-17T08:16:14.449Z,7.70
2022-11-17T08:18:43.988Z,8.40
2022-11-17T08:21:15.375Z,8.77
2022-11-17T08:23:42.524Z,6.60
2022-11-17T08:26:11.859Z,7.40
2022-11-17T08:28:39.518Z,7.80
2022-11-17T08:31:08.812Z,13.03
2022-11-17T08:33:36.079Z,7.90
2022-11-17T08:36:05.882Z,51.90
2022-11-17T08:38:33.623Z,7.17
2022-11-17T08:41:07.093Z,8.57
2022-11-17T08:43:34.821Z,3.90
2022-11-17T08:46:02.734Z,9.33
2022-11-17T08:48:31.660Z,9.27
2022-11-17T08:50:59.176Z,10.23
2022-11-17T08:53:26.157Z,8.13
2022-11-17T08:55:53.199Z,9.13
2022-11-17T08:58:20.157Z,13.00
2022-11-17T09:00:47.781Z,9.90
2022-11-17T09:03:15.494Z,8.43
2022-11-17T09:05:47.037Z,9.80
2022-11-17T09:11:10.784Z,10.10
2022-11-17T09:13:39.314Z,10.20
2022-11-17T09:16:10.059Z,10.03
2022-11-17T09:18:39.019Z,10.70
2022-11-17T09:21:10.657Z,5.90
2022-11-17T09:23:38.071Z,9.73
2022-11-17T09:26:14.643Z,10.23
2022-11-17T09:28:42.923Z,11.27
2022-11-17T09:31:20.336Z,8.73
2022-11-17T09:33:47.819Z,11.17
2022-11-17T09:36:16.477Z,10.33
2022-11-17T09:38:44.471Z,12.43
2022-11-17T09:41:42.035Z,15.00
2022-11-17T09:44:31.164Z,10.63
2022-11-17T09:47:19.885Z,8.20
2022-11-17T09:49:58.073Z,14.47
2022-11-17T09:52:30.959Z,11.67
2022-11-17T09:55:10.053Z,10.97
2022-11-17T09:57:52.396Z,12.37
2022-11-17T10:00:21.906Z,14.30
2022-11-17T10:02:50.899Z,18.20
2022-11-17T10:05:35.431Z,11.27
2022-11-17T10:08:13.142Z,12.83
2022-11-17T10:10:46.050Z,15.37
2022-11-17T10:13:36.769Z,13.23
2022-11-17T10:16:14.302Z,11.40
2022-11-17T10:18:41.555Z,10.73
2022-11-17T10:21:09.494Z,10.43
2022-11-17T10:23:46.256Z,11.77
2022-11-17T10:26:16.271Z,12.87
2022-11-17T10:28:44.782Z,14.50
2022-11-17T10:31:14.081Z,10.00
2022-11-17T10:33:48.079Z,13.33
2022-11-17T10:36:30.794Z,14.30
2022-11-17T10:39:00.488Z,14.63
2022-11-17T10:41:37.707Z,13.30
2022-11-17T10:44:22.145Z,12.87
2022-11-17T10:47:08.080Z,10.63
2022-11-17T11:05:19.091Z,10.03
2022-11-17T11:07:46.058Z,9.90
2022-11-17T11:10:25.310Z,10.20
2022-11-17T11:13:20.578Z,7.00
2022-11-17T11:15:48.155Z,10.13
2022-11-17T11:18:20.623Z,11.90
2022-11-17T11:24:35.187Z,11.50
2022-11-17T11:27:13.976Z,11.77
2022-11-17T11:29:57.814Z,10.17
2022-11-17T11:32:32.747Z,8.43
2022-11-17T11:35:21.323Z,12.13
2022-11-17T11:38:13.792Z,11.77
2022-11-17T11:40:46.015Z,9.03
2022-11-17T11:43:44.729Z,7.90
2022-11-17T11:46:15.592Z,11.40
2022-11-17T11:48:42.507Z,11.57
2022-11-17T11:51:17.857Z,11.90
2022-11-17T11:54:13.600Z,13.07
2022-11-17T11:56:46.186Z,8.80
2022-11-17T11:59:48.168Z,9.80
2022-11-17T12:02:39.799Z,7.70
2022-11-17T12:05:53.196Z,6.77
2022-11-17T12:08:38.042Z,7.73
2022-11-17T12:12:01.968Z,7.90
2022-11-17T12:14:37.351Z,10.53
2022-11-17T12:17:18.589Z,5.23
2022-11-17T12:19:55.366Z,9.37
2022-11-17T12:22:28.966Z,7.77
2022-11-17T12:25:18.127Z,8.03
2022-11-17T12:27:52.641Z,10.00
2022-11-17T12:30:34.785Z,8.23
2022-11-17T12:33:04.847Z,9.50
2022-11-17T12:35:38.099Z,9.87
2022-11-17T12:38:17.177Z,10.37
2022-11-17T12:40:52.879Z,9.50
2022-11-17T12:43:27.792Z,16.40
2022-11-17T12:46:14.530Z,10.73
2022-11-17T12:49:03.932Z,9.10
2022-11-17T12:51:44.586Z,6.77
2022-11-17T12:54:23.344Z,9.80
2022-11-17T12:56:57.502Z,10.70
2022-11-17T13:00:05.387Z,9.03
2022-11-17T13:02:58.941Z,17.87
2022-11-17T13:05:30.103Z,9.30
2022-11-17T13:08:14.997Z,9.17
2022-11-17T13:10:41.931Z,9.90
2022-11-17T13:13:24.041Z,9.83
2022-11-17T13:15:58.763Z,9.40
2022-11-17T13:18:36.451Z,8.93
2022-11-17T13:21:05.297Z,9.10
2022-11-17T13:23:34.489Z,8.47
2022-11-17T13:26:16.353Z,6.13
2022-11-17T13:28:44.499Z,9.70
2022-11-17T13:31:23.914Z,25.37
2022-11-17T13:34:09.718Z,9.17
2022-11-17T13:36:37.166Z,9.33
2022-11-17T13:39:04.221Z,7.80
2022-11-17T13:41:38.810Z,9.50
2022-11-17T13:44:08.647Z,9.87
2022-11-17T13:46:36.262Z,7.33
2022-11-17T13:49:39.225Z,6.87
2022-11-17T13:52:32.509Z,9.90
2022-11-17T13:55:01.827Z,9.03
2022-11-17T13:57:29.911Z,11.90
2022-11-17T13:59:58.588Z,7.23
2022-11-17T14:02:29.380Z,9.93
2022-11-17T14:05:23.473Z,9.53
2022-11-17T14:07:53.055Z,9.93
2022-11-17T14:10:22.728Z,8.47
2022-11-17T14:13:02.978Z,10.53
2022-11-17T14:15:34.540Z,15.83
2022-11-17T14:18:05.731Z,10.40
2022-11-17T14:20:35.648Z,8.77
2022-11-17T14:23:08.708Z,10.63
2022-11-17T14:25:41.252Z,9.97
2022-11-17T14:28:15.565Z,10.13
2022-11-17T14:30:45.061Z,8.80
2022-11-17T14:33:13.749Z,11.77
2022-11-17T14:35:41.871Z,6.97
2022-11-17T14:38:18.329Z,10.23
2022-11-17T14:40:45.474Z,9.13
2022-11-17T14:43:12.418Z,9.30
2022-11-17T14:45:39.468Z,8.37
2022-11-17T14:48:06.802Z,9.23
2022-11-17T14:50:34.381Z,7.77
2022-11-17T14:53:02.237Z,8.03
2022-11-17T14:55:29.322Z,9.90
2022-11-17T14:57:56.357Z,8.80
2022-11-17T15:00:23.594Z,8.97
2022-11-17T15:02:51.212Z,10.27
2022-11-17T15:05:18.365Z,8.70
2022-11-17T15:07:45.367Z,9.60
2022-11-17T15:10:12.543Z,10.87
2022-11-17T15:12:39.503Z,10.10
2022-11-17T15:15:07.445Z,8.03
2022-11-17T15:17:34.409Z,9.77
2022-11-17T15:20:02.347Z,9.27
2022-11-17T15:22:29.421Z,11.00
2022-11-17T15:24:56.378Z,13.80
2022-11-17T15:27:23.762Z,12.60
2022-11-17T15:29:50.875Z,23.57
2022-11-17T15:32:17.865Z,11.90
2022-11-17T15:34:44.872Z,13.40
2022-11-17T15:37:11.976Z,8.93
2022-11-17T15:39:39.099Z,11.00
2022-11-17T15:42:06.048Z,11.60
2022-11-17T15:44:33.005Z,17.33
2022-11-17T15:47:00.086Z,14.73
2022-11-17T15:49:27.071Z,13.27
2022-11-17T15:51:54.618Z,15.57
2022-11-17T15:54:23.374Z,12.80
2022-11-17T15:56:51.786Z,15.13
2022-11-17T15:59:19.529Z,16.73
2022-11-17T16:01:47.023Z,15.03
2022-11-17T16:04:16.124Z,17.47
2022-11-17T16:06:45.650Z,16.13
2022-11-17T16:09:13.464Z,13.20
2022-11-17T16:11:41.590Z,19.53
2022-11-17T16:14:09.115Z,16.60
2022-11-17T16:16:39.003Z,15.53
2022-11-17T16:19:07.080Z,12.83
2022-11-17T16:21:34.019Z,17.00
2022-11-17T16:24:02.358Z,17.40
2022-11-17T16:26:30.475Z,20.90
2022-11-17T16:29:03.020Z,18.43
2022-11-17T16:31:33.521Z,18.23
2022-11-17T16:34:05.138Z,21.23
2022-11-17T16:36:36.804Z,16.10
2022-11-17T16:39:07.386Z,14.77
2022-11-17T16:41:37.946Z,15.13
2022-11-17T16:44:11.728Z,14.63
2022-11-17T16:46:41.867Z,15.13
2022-11-17T16:49:13.693Z,17.40
2022-11-17T16:51:41.174Z,12.10
2022-11-17T16:54:12.548Z,16.23
2022-11-17T16:56:40.234Z,18.20
2022-11-17T16:59:07.450Z,17.17
2022-11-17T17:01:36.939Z,19.73
2022-11-17T17:04:07.224Z,16.33
2022-11-17T17:06:37.156Z,17.47
2022-11-17T17:09:06.983Z,16.47
2022-11-17T17:11:35.984Z,12.67
2022-11-17T17:14:05.539Z,16.07
2022-11-17T17:16:35.701Z,17.20
2022-11-17T17:19:05.471Z,16.80
2022-11-17T17:21:34.088Z,15.20
2022-11-17T17:24:02.258Z,19.53
2022-11-17T17:26:31.984Z,15.90
2022-11-17T17:29:01.077Z,16.37
2022-11-17T17:31:42.448Z,17.20
2022-11-17T17:34:11.967Z,16.20
2022-11-17T17:36:39.272Z,19.73
2022-11-17T17:39:06.751Z,15.77
2022-11-17T17:41:39.451Z,24.23
2022-11-17T17:44:08.178Z,13.23
2022-11-17T17:46:38.532Z,15.07
2022-11-17T17:49:06.183Z,17.77
2022-11-17T17:51:38.170Z,19.43
2022-11-17T17:54:05.833Z,16.77
2022-11-17T17:56:34.888Z,20.03
2022-11-17T17:59:02.250Z,20.13
2022-11-17T18:01:33.211Z,13.57
2022-11-17T18:04:05.181Z,23.63
2022-11-17T18:06:38.299Z,9.80
2022-11-17T18:09:10.893Z,15.97
2022-11-17T18:11:45.597Z,18.63
2022-11-17T18:14:13.408Z,17.80
2022-11-17T18:16:41.098Z,19.87
2022-11-17T18:19:09.418Z,24.83
2022-11-17T18:21:36.497Z,19.37
2022-11-17T18:24:03.781Z,20.73
2022-11-17T18:26:35.266Z,23.60
2022-11-17T18:29:14.895Z,18.87
2022-11-17T18:31:42.874Z,17.90
2022-11-17T18:34:21.647Z,19.70
2022-11-17T18:36:50.325Z,30.00
2022-11-17T18:39:17.717Z,16.63
2022-11-17T18:41:45.314Z,22.23
2022-11-17T18:44:19.743Z,22.83
2022-11-17T18:46:47.385Z,21.47
2022-11-17T18:49:14.854Z,20.00
2022-11-17T18:51:42.184Z,21.50
2022-11-17T18:54:12.174Z,18.03
2022-11-17T18:56:40.065Z,27.40
2022-11-17T18:59:11.671Z,15.83
2022-11-17T19:01:42.284Z,24.20
2022-11-17T19:04:11.940Z,23.53
2022-11-17T19:06:39.019Z,21.60
2022-11-17T19:09:06.808Z,29.70
2022-11-17T19:11:35.103Z,19.20
2022-11-17T19:14:04.227Z,19.53
2022-11-17T19:16:32.806Z,28.70
2022-11-17T19:19:00.118Z,18.40
2022-11-17T19:21:35.898Z,26.17
2022-11-17T19:24:04.433Z,27.93
2022-11-17T19:26:35.836Z,32.13
2022-11-17T19:29:11.184Z,21.53
2022-11-17T19:31:41.691Z,15.97
2022-11-17T19:34:08.655Z,25.67
2022-11-17T19:36:35.803Z,22.67
2022-11-17T19:39:03.828Z,15.47
2022-11-17T19:41:34.708Z,21.40
2022-11-17T19:44:06.737Z,19.67
2022-11-17T19:46:36.151Z,22.47
2022-11-17T19:49:04.822Z,22.67
2022-11-17T19:51:36.630Z,12.50
2022-11-17T19:54:07.414Z,24.50
2022-11-17T19:56:35.411Z,22.47
2022-11-17T19:59:03.413Z,25.70
2022-11-17T20:01:31.653Z,21.23
2022-11-17T20:04:00.396Z,25.77
2022-11-17T20:06:37.155Z,22.93
2022-11-17T20:09:13.671Z,18.47
2022-11-17T20:11:41.844Z,26.63
2022-11-17T20:14:09.170Z,22.07
2022-11-17T20:16:38.653Z,23.23
2022-11-17T20:19:05.779Z,24.97
2022-11-17T20:21:34.678Z,26.73
2022-11-17T20:24:02.715Z,25.73
2022-11-17T20:26:33.620Z,25.03
2022-11-17T20:29:02.386Z,23.00
2022-11-17T20:31:33.638Z,28.53
2022-11-17T20:34:02.032Z,25.03
2022-11-17T20:36:31.867Z,32.23
2022-11-17T20:39:02.332Z,21.13
2022-11-17T20:41:30.232Z,24.27
2022-11-17T20:43:59.667Z,30.30
2022-11-17T20:46:26.876Z,26.60
2022-11-17T20:48:54.156Z,24.10
2022-11-17T20:51:23.882Z,32.57
2022-11-17T20:53:51.634Z,23.00
2022-11-17T20:56:19.073Z,27.37
2022-11-17T20:58:46.082Z,26.57
2022-11-17T21:01:20.120Z,28.60
2022-11-17T21:03:48.027Z,28.43
2022-11-17T21:06:16.521Z,26.50
2022-11-17T21:08:45.104Z,29.07
2022-11-17T21:11:37.398Z,24.50
2022-11-17T21:14:06.918Z,28.63
2022-11-17T21:16:36.838Z,30.03
2022-11-17T21:19:04.630Z,28.67
2022-11-17T21:21:32.002Z,36.70
2022-11-17T21:23:59.680Z,26.03
2022-11-17T21:26:27.948Z,21.43
2022-11-17T21:28:55.024Z,31.30
2022-11-17T21:31:25.775Z,22.90
2022-11-17T21:34:05.271Z,20.97
2022-11-17T21:36:33.895Z,25.30
2022-11-17T21:39:02.343Z,21.53
2022-11-17T21:41:35.466Z,26.00
2022-11-17T21:44:03.523Z,24.07
2022-11-17T21:46:33.907Z,24.17
2022-11-17T21:49:01.844Z,25.73
2022-11-17T21:51:38.544Z,24.83
2022-11-17T21:54:10.031Z,22.73
2022-11-17T21:56:37.265Z,26.77
2022-11-17T21:59:09.604Z,24.47
2022-11-17T22:01:37.209Z,21.93
2022-11-17T22:04:04.936Z,24.10
2022-11-17T22:06:32.034Z,23.43
2022-11-17T22:08:59.652Z,21.40
2022-11-17T22:11:36.301Z,21.70
2022-11-17T22:14:12.145Z,29.53
2022-11-17T22:16:53.658Z,21.30
2022-11-17T22:19:24.024Z,25.00
2022-11-17T22:21:53.665Z,24.67
2022-11-17T22:24:22.582Z,24.77
2022-11-17T22:26:51.446Z,28.13
2022-11-17T22:29:21.525Z,21.97
2022-11-17T22:31:49.906Z,18.90
2022-11-17T22:34:18.384Z,20.20
2022-11-17T22:36:45.693Z,29.27
2022-11-17T22:39:12.759Z,24.43
2022-11-17T22:41:39.933Z,18.87
2022-11-17T22:44:07.006Z,22.50
2022-11-17T22:46:35.504Z,25.83
2022-11-17T22:49:03.179Z,27.57
2022-11-17T22:51:48.446Z,17.33
2022-11-17T22:54:15.456Z,27.43
2022-11-17T22:56:42.774Z,28.57
2022-11-17T22:59:10.174Z,26.63
2022-11-17T23:01:37.501Z,22.87
2022-11-17T23:04:04.565Z,27.70
2022-11-17T23:06:31.590Z,31.10
2022-11-17T23:08:59.074Z,29.40
2022-11-17T23:11:36.937Z,18.47
2022-11-17T23:14:05.588Z,23.97
2022-11-17T23:16:33.181Z,29.70
2022-11-17T23:19:00.411Z,22.23
2022-11-17T23:21:27.303Z,27.73
2022-11-17T23:23:54.360Z,28.10
2022-11-17T23:26:22.356Z,34.27
2022-11-17T23:28:49.504Z,25.90
2022-11-17T23:31:18.056Z,36.83
2022-11-17T23:33:48.277Z,27.63
2022-11-17T23:36:18.444Z,20.67
2022-11-17T23:38:46.690Z,34.03
2022-11-17T23:41:16.803Z,27.07
2022-11-17T23:43:43.782Z,34.67
2022-11-17T23:46:17.226Z,31.30
2022-11-17T23:48:44.866Z,30.77
2022-11-17T23:51:21.717Z,26.17
2022-11-17T23:53:49.635Z,30.30
2022-11-17T23:56:18.924Z,34.03
2022-11-17T23:58:46.349Z,23.70
